Terminal Aerodrome Forecast
Issued by NWS Oklahoma City, OK

Home | Current Version | Previous Version | Text Only | Print | Product List | Glossary On
Versions: 1 2 3 4 5 6 7 8 9 10 11 12 13 14 15 16 17 18 19 20 21 22 23 24 25 26 27 28 29 30 31 32 33
000
FTUS44 KOUN 201124
TAFOUN
TAF
KOUN 201124Z 2012/2112 03005KT P6SM VCSH OVC015
     FM201400 12006KT 6SM -DZ OVC010
      TEMPO 2014/2016 4SM -DZ OVC008
     FM201600 16011KT P6SM OVC015
     FM202000 18013KT P6SM OVC025
     FM210200 11008KT P6SM BKN035 PROB30 2103/2106 4SM TSRA OVC025CB
     FM210800 08007KT P6SM OVC009 WS020/19030KT=

USA.gov is the U.S. government's official web portal to all federal, state and local government web resources and services.